createdAt,value
2023-02-11T00:00:28.169Z,-3.56
2023-02-11T00:01:34.048Z,-3.47
2023-02-11T00:02:37.272Z,-3.55
2023-02-11T00:03:40.380Z,-3.66
2023-02-11T00:04:43.515Z,-3.74
2023-02-11T00:05:46.681Z,-3.69
2023-02-11T00:06:49.682Z,-3.55
2023-02-11T00:07:52.820Z,-3.62
2023-02-11T00:08:56.634Z,-3.67
2023-02-11T00:10:00.262Z,-3.77
2023-02-11T00:11:04.069Z,-3.78
2023-02-11T00:12:07.096Z,-3.80
2023-02-11T00:13:10.055Z,-3.85
2023-02-11T00:14:13.140Z,-3.85
2023-02-11T00:15:16.148Z,-3.78
2023-02-11T00:16:21.866Z,-3.76
2023-02-11T00:17:26.133Z,-3.79
2023-02-11T00:18:29.184Z,-3.87
2023-02-11T00:19:32.366Z,-3.89
2023-02-11T00:20:35.349Z,-3.85
2023-02-11T00:21:38.460Z,-3.90
2023-02-11T00:22:41.589Z,-3.89
2023-02-11T00:23:46.226Z,-3.88
2023-02-11T00:24:49.345Z,-3.89
2023-02-11T00:25:52.839Z,-3.89
2023-02-11T00:26:56.389Z,-3.90
2023-02-11T00:28:00.020Z,-3.89
2023-02-11T00:29:05.030Z,-3.95
2023-02-11T00:30:08.981Z,-4.01
2023-02-11T00:31:13.228Z,-4.01
2023-02-11T00:32:16.381Z,-4.00
2023-02-11T00:33:19.500Z,-3.93
2023-02-11T00:34:22.828Z,-3.83
2023-02-11T00:35:25.923Z,-3.89
2023-02-11T00:36:29.906Z,-3.88
2023-02-11T00:37:36.696Z,-3.88
2023-02-11T00:38:39.897Z,-3.89
2023-02-11T00:39:43.033Z,-3.91
2023-02-11T00:40:46.197Z,-3.93
2023-02-11T00:41:49.323Z,-3.88
2023-02-11T00:42:52.520Z,-3.95
2023-02-11T00:43:55.487Z,-3.93
2023-02-11T00:44:58.673Z,-3.96
2023-02-11T00:46:01.686Z,-4.02
2023-02-11T00:47:04.815Z,-3.97
2023-02-11T00:48:07.822Z,-3.88
2023-02-11T00:49:11.150Z,-3.94
2023-02-11T00:50:14.230Z,-4.03
2023-02-11T00:51:17.775Z,-3.99
2023-02-11T00:52:20.877Z,-3.90
2023-02-11T00:53:24.168Z,-3.89
2023-02-11T00:54:29.873Z,-3.93
2023-02-11T00:55:33.188Z,-3.96
2023-02-11T00:56:36.350Z,-3.99
2023-02-11T00:57:39.384Z,-3.92
2023-02-11T00:58:42.589Z,-3.86
2023-02-11T00:59:45.667Z,-3.85
2023-02-11T01:00:49.570Z,-3.73
2023-02-11T01:01:52.851Z,-3.68
2023-02-11T01:02:56.359Z,-3.68
2023-02-11T01:03:59.550Z,-3.77
2023-02-11T01:05:02.761Z,-3.76
2023-02-11T01:06:08.211Z,-3.75
2023-02-11T01:07:11.579Z,-3.82
2023-02-11T01:08:14.667Z,-3.79
2023-02-11T01:09:18.159Z,-3.81
2023-02-11T01:10:21.285Z,-3.84
2023-02-11T01:11:24.463Z,-3.92
2023-02-11T01:12:27.498Z,-4.01
2023-02-11T01:13:33.058Z,-4.05
2023-02-11T01:14:36.122Z,-4.09
2023-02-11T01:15:39.422Z,-4.11
2023-02-11T01:16:42.663Z,-4.14
2023-02-11T01:17:45.940Z,-4.16
2023-02-11T01:18:49.676Z,-4.13
2023-02-11T01:19:52.870Z,-4.05
2023-02-11T01:20:57.115Z,-3.94
2023-02-11T01:22:00.257Z,-3.82
2023-02-11T01:23:03.346Z,-3.90
2023-02-11T01:24:06.918Z,-3.94
2023-02-11T01:25:10.665Z,-4.02
2023-02-11T01:26:14.161Z,-3.90
2023-02-11T01:27:17.494Z,-3.88
2023-02-11T01:28:26.470Z,-3.84
2023-02-11T01:29:29.422Z,-3.94
2023-02-11T01:30:32.709Z,-3.91
2023-02-11T01:31:36.074Z,-3.89
2023-02-11T01:32:39.265Z,-3.94
2023-02-11T01:33:42.462Z,-3.90
2023-02-11T01:34:45.456Z,-3.82
2023-02-11T01:35:49.018Z,-3.80
2023-02-11T01:36:56.862Z,-3.85
2023-02-11T01:37:59.885Z,-3.92
2023-02-11T01:39:02.975Z,-3.99
2023-02-11T01:40:11.621Z,-3.93
2023-02-11T01:41:15.462Z,-4.03
2023-02-11T01:42:22.650Z,-4.12
2023-02-11T01:43:28.428Z,-4.13
2023-02-11T01:44:38.264Z,-4.16
2023-02-11T01:45:50.044Z,-4.20
2023-02-11T01:46:54.170Z,-4.12
2023-02-11T01:47:57.623Z,-4.08
2023-02-11T01:49:09.916Z,-4.00
2023-02-11T01:50:13.661Z,-4.03
2023-02-11T01:51:22.476Z,-3.99
2023-02-11T01:52:39.405Z,-3.95
2023-02-11T01:54:02.406Z,-4.04
2023-02-11T01:55:32.856Z,-4.06
2023-02-11T01:56:58.823Z,-4.07
2023-02-11T01:58:05.554Z,-4.10
2023-02-11T01:59:33.624Z,-4.15
2023-02-11T02:00:39.306Z,-4.22
2023-02-11T02:01:48.860Z,-4.25
2023-02-11T02:03:13.474Z,-4.20
2023-02-11T02:04:19.391Z,-4.09
2023-02-11T02:06:07.424Z,-3.97
2023-02-11T02:07:17.514Z,-4.06
2023-02-11T02:08:50.621Z,-4.04
2023-02-11T02:10:06.285Z,-4.02
2023-02-11T02:11:10.023Z,-4.12
2023-02-11T02:12:12.988Z,-4.05
2023-02-11T02:13:16.519Z,-4.13
2023-02-11T02:14:19.925Z,-4.19
2023-02-11T02:15:26.734Z,-4.19
2023-02-11T02:16:36.776Z,-4.21
2023-02-11T02:17:57.495Z,-4.11
2023-02-11T02:19:07.014Z,-4.10
2023-02-11T02:20:10.144Z,-4.14
2023-02-11T02:21:34.967Z,-4.19
2023-02-11T02:23:03.844Z,-4.25
2023-02-11T02:24:45.053Z,-4.15
2023-02-11T02:26:09.451Z,-4.24
2023-02-11T02:27:18.704Z,-4.34
2023-02-11T02:28:59.630Z,-4.40
2023-02-11T02:30:46.343Z,-4.26
2023-02-11T02:32:37.337Z,-4.20
2023-02-11T02:33:43.365Z,-4.12
2023-02-11T02:35:10.544Z,-4.11
2023-02-11T02:36:35.054Z,-4.16
2023-02-11T02:37:43.865Z,-4.23
2023-02-11T02:38:54.978Z,-4.29
2023-02-11T02:40:03.660Z,-4.28
2023-02-11T02:41:17.145Z,-4.09
2023-02-11T02:42:21.363Z,-4.04
2023-02-11T02:43:27.871Z,-4.12
2023-02-11T02:44:31.644Z,-4.06
2023-02-11T02:45:34.778Z,-3.99
2023-02-11T02:46:38.018Z,-4.04
2023-02-11T02:47:41.383Z,-4.00
2023-02-11T02:48:45.786Z,-4.08
2023-02-11T02:49:48.824Z,-4.07
2023-02-11T02:51:00.698Z,-3.97
2023-02-11T02:52:47.881Z,-4.07
2023-02-11T02:54:09.581Z,-4.09
2023-02-11T02:55:35.378Z,-4.06
2023-02-11T02:56:52.141Z,-3.99
2023-02-11T02:58:31.084Z,-3.99
2023-02-11T02:59:58.874Z,-4.04
2023-02-11T03:01:14.113Z,-4.09
2023-02-11T03:02:47.404Z,-4.03
2023-02-11T03:04:05.931Z,-3.95
2023-02-11T03:05:35.660Z,-3.86
2023-02-11T03:06:58.781Z,-3.84
2023-02-11T03:08:16.629Z,-3.84
2023-02-11T03:09:40.353Z,-3.72
2023-02-11T03:10:50.957Z,-3.75
2023-02-11T03:11:54.448Z,-3.69
2023-02-11T03:12:58.571Z,-3.64
2023-02-11T03:14:05.093Z,-3.66
2023-02-11T03:15:09.168Z,-3.71
2023-02-11T03:16:18.694Z,-3.63
2023-02-11T03:17:24.040Z,-3.66
2023-02-11T03:18:30.125Z,-3.65
2023-02-11T03:19:44.190Z,-3.68
2023-02-11T03:20:52.671Z,-3.54
2023-02-11T03:21:57.673Z,-3.51
2023-02-11T03:23:13.608Z,-3.40
2023-02-11T03:24:24.754Z,-3.52
2023-02-11T03:25:34.120Z,-3.64
2023-02-11T03:26:49.132Z,-3.68
2023-02-11T03:28:18.602Z,-3.57
2023-02-11T03:29:44.449Z,-3.55
2023-02-11T03:31:05.985Z,-3.50
2023-02-11T03:32:25.261Z,-3.58
2023-02-11T03:33:33.801Z,-3.51
2023-02-11T03:34:45.883Z,-3.55
2023-02-11T03:35:57.059Z,-3.57
2023-02-11T03:37:14.912Z,-3.46
2023-02-11T03:38:26.540Z,-3.59
2023-02-11T03:39:36.873Z,-3.60
2023-02-11T03:40:43.941Z,-3.63
2023-02-11T03:41:49.305Z,-3.60
2023-02-11T03:42:58.978Z,-3.56
2023-02-11T03:44:03.378Z,-3.56
2023-02-11T03:45:11.196Z,-3.63
2023-02-11T03:46:18.071Z,-3.66
2023-02-11T03:47:26.387Z,-3.64
2023-02-11T03:48:37.347Z,-3.70
2023-02-11T03:49:43.843Z,-3.68
2023-02-11T03:50:48.713Z,-3.73
2023-02-11T03:51:55.249Z,-3.76
2023-02-11T03:53:02.443Z,-3.76
2023-02-11T03:54:09.902Z,-3.76
2023-02-11T03:55:17.906Z,-3.60
2023-02-11T03:56:24.069Z,-3.63
2023-02-11T03:57:27.310Z,-3.59
2023-02-11T03:58:31.151Z,-3.66
2023-02-11T03:59:54.208Z,-3.74
2023-02-11T04:00:57.548Z,-3.75
2023-02-11T04:02:00.732Z,-3.75
2023-02-11T04:03:07.663Z,-3.78
2023-02-11T04:04:11.235Z,-3.75
2023-02-11T04:05:16.722Z,-3.77
2023-02-11T04:06:19.934Z,-3.74
2023-02-11T04:07:23.655Z,-3.65
2023-02-11T04:08:26.918Z,-3.68
2023-02-11T04:09:30.375Z,-3.66
2023-02-11T04:10:34.088Z,-3.62
2023-02-11T04:11:37.225Z,-3.65
2023-02-11T04:12:40.423Z,-3.63
2023-02-11T04:13:43.367Z,-3.51
2023-02-11T04:14:46.444Z,-3.55
2023-02-11T04:15:49.781Z,-3.52
2023-02-11T04:16:53.126Z,-3.52
2023-02-11T04:17:56.058Z,-3.62
2023-02-11T04:18:59.306Z,-3.80
2023-02-11T04:20:02.505Z,-3.86
2023-02-11T04:21:05.932Z,-3.81
2023-02-11T04:22:09.468Z,-3.77
2023-02-11T04:23:12.698Z,-3.77
2023-02-11T04:24:15.901Z,-3.77
2023-02-11T04:25:18.975Z,-3.78
2023-02-11T04:26:22.081Z,-3.88
2023-02-11T04:27:25.205Z,-3.95
2023-02-11T04:28:29.925Z,-4.08
2023-02-11T04:29:33.115Z,-4.03
2023-02-11T04:30:36.292Z,-3.96
2023-02-11T04:31:39.235Z,-3.81
2023-02-11T04:32:42.401Z,-3.73
2023-02-11T04:33:45.428Z,-3.78
2023-02-11T04:34:48.671Z,-3.88
2023-02-11T04:35:52.004Z,-3.99
2023-02-11T04:36:55.431Z,-3.91
2023-02-11T04:37:58.698Z,-3.80
2023-02-11T04:39:01.936Z,-3.80
2023-02-11T04:40:05.396Z,-3.79
2023-02-11T04:41:08.457Z,-3.90
2023-02-11T04:42:11.630Z,-4.05
2023-02-11T04:43:14.628Z,-4.13
2023-02-11T04:44:17.680Z,-4.22
2023-02-11T04:45:20.861Z,-4.31
2023-02-11T04:46:23.886Z,-4.38
2023-02-11T04:47:26.857Z,-4.41
2023-02-11T04:48:29.986Z,-4.42
2023-02-11T04:49:33.184Z,-4.44
2023-02-11T04:50:36.352Z,-4.43
2023-02-11T04:51:39.498Z,-4.44
2023-02-11T04:52:42.488Z,-4.51
2023-02-11T04:53:45.485Z,-4.53
2023-02-11T04:54:48.428Z,-4.44
2023-02-11T04:55:51.820Z,-4.39
2023-02-11T04:56:55.077Z,-4.43
2023-02-11T04:57:58.239Z,-4.48
2023-02-11T04:59:01.438Z,-4.54
2023-02-11T05:00:05.497Z,-4.57
2023-02-11T05:01:10.494Z,-4.58
2023-02-11T05:02:13.504Z,-4.48
2023-02-11T05:03:16.958Z,-4.36
2023-02-11T05:04:20.246Z,-4.31
2023-02-11T05:05:23.296Z,-4.39
2023-02-11T05:06:26.519Z,-4.37
2023-02-11T05:07:29.604Z,-4.33
2023-02-11T05:08:33.258Z,-4.41
2023-02-11T05:09:36.338Z,-4.33
2023-02-11T05:10:39.501Z,-4.27
2023-02-11T05:11:42.932Z,-4.38
2023-02-11T05:12:48.880Z,-4.39
2023-02-11T05:13:52.433Z,-4.27
2023-02-11T05:14:55.500Z,-4.38
2023-02-11T05:15:58.828Z,-4.37
2023-02-11T05:17:01.810Z,-4.46
2023-02-11T05:18:05.156Z,-4.51
2023-02-11T05:19:09.103Z,-4.54
2023-02-11T05:20:12.388Z,-4.44
2023-02-11T05:21:18.861Z,-4.23
2023-02-11T05:22:22.396Z,-4.26
2023-02-11T05:23:25.384Z,-4.23
2023-02-11T05:24:28.380Z,-4.24
2023-02-11T05:25:31.384Z,-4.14
2023-02-11T05:26:34.479Z,-4.21
2023-02-11T05:27:37.429Z,-4.32
2023-02-11T05:28:41.547Z,-4.35
2023-02-11T05:29:44.827Z,-4.30
2023-02-11T05:30:48.137Z,-4.36
2023-02-11T05:31:51.283Z,-4.34
2023-02-11T05:32:54.631Z,-4.36
2023-02-11T05:33:57.738Z,-4.38
2023-02-11T05:35:00.973Z,-4.34
2023-02-11T05:36:08.549Z,-4.31
2023-02-11T05:37:12.165Z,-4.34
2023-02-11T05:38:15.508Z,-4.38
2023-02-11T05:39:18.586Z,-4.38
2023-02-11T05:40:21.880Z,-4.40
2023-02-11T05:41:24.965Z,-4.37
2023-02-11T05:42:28.310Z,-4.40
2023-02-11T05:43:31.541Z,-4.46
2023-02-11T05:44:34.579Z,-4.47
2023-02-11T05:45:37.667Z,-4.49
2023-02-11T05:46:40.788Z,-4.37
2023-02-11T05:47:44.716Z,-4.30
2023-02-11T05:48:47.921Z,-4.40
2023-02-11T05:49:53.959Z,-4.45
2023-02-11T05:50:57.301Z,-4.51
2023-02-11T05:52:00.457Z,-4.52
2023-02-11T05:53:03.643Z,-4.45
2023-02-11T05:54:06.983Z,-4.43
2023-02-11T05:55:09.905Z,-4.39
2023-02-11T05:56:14.949Z,-4.45
2023-02-11T05:57:18.625Z,-4.42
2023-02-11T05:58:21.686Z,-4.41
2023-02-11T05:59:24.996Z,-4.25
2023-02-11T06:00:28.026Z,-4.26
2023-02-11T06:01:31.204Z,-4.33
2023-02-11T06:02:34.759Z,-4.39
2023-02-11T06:03:38.036Z,-4.46
2023-02-11T06:04:41.841Z,-4.40
2023-02-11T06:05:45.921Z,-4.23
2023-02-11T06:06:49.648Z,-4.15
2023-02-11T06:07:53.580Z,-4.14
2023-02-11T06:08:56.790Z,-4.19
2023-02-11T06:09:59.898Z,-4.16
2023-02-11T06:11:03.028Z,-4.21
2023-02-11T06:12:06.600Z,-4.21
2023-02-11T06:13:09.769Z,-4.19
2023-02-11T06:14:12.840Z,-4.19
2023-02-11T06:15:15.948Z,-4.20
2023-02-11T06:16:19.269Z,-4.22
2023-02-11T06:17:23.581Z,-4.17
2023-02-11T06:18:26.981Z,-4.12
2023-02-11T06:19:31.357Z,-4.05
2023-02-11T06:20:34.536Z,-4.03
2023-02-11T06:21:43.932Z,-4.06
2023-02-11T06:22:47.532Z,-4.08
2023-02-11T06:23:50.715Z,-4.15
2023-02-11T06:25:01.327Z,-4.15
2023-02-11T06:26:07.152Z,-4.11
2023-02-11T06:27:10.164Z,-4.10
2023-02-11T06:28:13.557Z,-4.14
2023-02-11T06:29:16.787Z,-4.17
2023-02-11T06:30:19.848Z,-4.14
2023-02-11T06:31:22.817Z,-4.09
2023-02-11T06:32:45.533Z,-4.08
2023-02-11T06:33:50.455Z,-4.13
2023-02-11T06:34:53.499Z,-4.15
2023-02-11T06:35:56.525Z,-4.17
2023-02-11T06:36:59.777Z,-4.18
2023-02-11T06:38:02.966Z,-4.17
2023-02-11T06:39:06.274Z,-4.11
2023-02-11T06:40:11.478Z,-4.04
2023-02-11T06:41:16.693Z,-3.96
2023-02-11T06:42:19.750Z,-4.03
2023-02-11T06:43:23.249Z,-4.04
2023-02-11T06:44:26.330Z,-3.94
2023-02-11T06:45:29.473Z,-3.92
2023-02-11T06:46:32.761Z,-3.88
2023-02-11T06:47:35.981Z,-3.85
2023-02-11T06:48:39.080Z,-3.83
2023-02-11T06:49:42.464Z,-3.82
2023-02-11T06:50:45.577Z,-3.75
2023-02-11T06:51:48.624Z,-3.70
2023-02-11T06:52:51.673Z,-3.69
2023-02-11T06:53:55.494Z,-3.67
2023-02-11T06:54:58.606Z,-3.64
2023-02-11T06:56:06.674Z,-3.62
2023-02-11T06:57:09.840Z,-3.59
2023-02-11T06:58:13.230Z,-3.59
2023-02-11T06:59:18.736Z,-3.61
2023-02-11T07:00:21.926Z,-3.57
2023-02-11T07:01:26.201Z,-3.55
2023-02-11T07:02:29.825Z,-3.48
2023-02-11T07:03:36.497Z,-3.40
2023-02-11T07:04:39.377Z,-3.40
2023-02-11T07:05:44.989Z,-3.39
2023-02-11T07:06:48.209Z,-3.38
2023-02-11T07:07:51.609Z,-3.36
2023-02-11T07:08:56.037Z,-3.34
2023-02-11T07:09:58.941Z,-3.31
2023-02-11T07:11:02.168Z,-3.27
2023-02-11T07:12:05.349Z,-3.26
2023-02-11T07:13:08.529Z,-3.24
2023-02-11T07:14:13.600Z,-3.21
2023-02-11T07:15:16.770Z,-3.18
2023-02-11T07:16:20.512Z,-3.17
2023-02-11T07:17:23.773Z,-3.14
2023-02-11T07:18:26.915Z,-3.11
2023-02-11T07:19:29.993Z,-3.06
2023-02-11T07:20:33.155Z,-3.01
2023-02-11T07:21:36.330Z,-2.97
2023-02-11T07:22:39.314Z,-2.93
2023-02-11T07:23:42.742Z,-2.88
2023-02-11T07:24:46.200Z,-2.83
2023-02-11T07:25:49.594Z,-2.77
2023-02-11T07:26:54.040Z,-2.66
2023-02-11T07:27:57.276Z,-2.56
2023-02-11T07:29:00.445Z,-2.50
2023-02-11T07:30:07.252Z,-2.44
2023-02-11T07:31:22.652Z,-2.30
2023-02-11T07:32:25.654Z,-2.20
2023-02-11T07:33:28.659Z,-2.13
2023-02-11T07:34:31.940Z,-2.06
2023-02-11T07:35:35.088Z,-2.01
2023-02-11T07:36:38.403Z,-1.93
2023-02-11T07:37:41.953Z,-1.86
2023-02-11T07:38:45.244Z,-1.80
2023-02-11T07:39:48.560Z,-1.74
2023-02-11T07:40:51.681Z,-1.67
2023-02-11T07:41:55.329Z,-1.62
2023-02-11T07:42:58.463Z,-1.58
2023-02-11T07:44:04.008Z,-1.53
2023-02-11T07:45:08.123Z,-1.48
2023-02-11T07:46:25.691Z,-1.46
2023-02-11T07:47:28.836Z,-1.42
2023-02-11T07:48:32.372Z,-1.39
2023-02-11T07:49:35.503Z,-1.35
2023-02-11T07:50:38.643Z,-1.32
2023-02-11T07:51:42.260Z,-1.30
2023-02-11T07:52:45.258Z,-1.27
2023-02-11T07:53:48.421Z,-1.24
2023-02-11T07:54:51.619Z,-1.21
2023-02-11T07:55:54.626Z,-1.14
2023-02-11T07:56:57.660Z,-1.09
2023-02-11T07:58:00.710Z,-0.89
2023-02-11T07:59:04.305Z,-0.92
2023-02-11T08:00:08.142Z,-0.94
2023-02-11T08:01:14.580Z,-0.95
2023-02-11T08:02:17.642Z,-0.93
2023-02-11T08:03:20.724Z,-0.89
2023-02-11T08:04:23.997Z,-0.83
2023-02-11T08:05:27.033Z,-0.75
2023-02-11T08:06:33.054Z,-0.74
2023-02-11T08:07:36.102Z,-0.71
2023-02-11T08:08:39.477Z,-0.68
2023-02-11T08:09:42.823Z,-0.65
2023-02-11T08:10:45.912Z,-0.60
2023-02-11T08:11:49.000Z,-0.56
2023-02-11T08:12:52.161Z,-0.52
2023-02-11T08:13:56.630Z,-0.49
2023-02-11T08:14:59.873Z,-0.47
2023-02-11T08:16:05.751Z,-0.43
2023-02-11T08:17:08.878Z,-0.40
2023-02-11T08:18:11.813Z,-0.34
2023-02-11T08:19:17.112Z,-0.31
2023-02-11T08:20:20.063Z,-0.28
2023-02-11T08:21:24.785Z,-0.24
2023-02-11T08:22:27.706Z,-0.22
2023-02-11T08:23:30.659Z,-0.20
2023-02-11T08:24:33.762Z,-0.22
2023-02-11T08:25:37.003Z,-0.19
2023-02-11T08:26:41.287Z,-0.14
2023-02-11T08:27:44.398Z,-0.12
2023-02-11T08:28:49.029Z,-0.13
2023-02-11T08:29:52.855Z,-0.14
2023-02-11T08:30:55.963Z,-0.10
2023-02-11T08:31:59.067Z,-0.10
2023-02-11T08:33:02.564Z,-0.09
2023-02-11T08:34:05.963Z,-0.09
2023-02-11T08:35:09.740Z,-0.10
2023-02-11T08:36:16.614Z,-0.02
2023-02-11T08:37:20.611Z,-0.01
2023-02-11T08:38:23.761Z,0.01
2023-02-11T08:39:26.682Z,0.03
2023-02-11T08:40:29.950Z,0.05
2023-02-11T08:41:33.722Z,0.12
2023-02-11T08:42:37.042Z,0.19
2023-02-11T08:43:41.955Z,0.21
2023-02-11T08:44:45.090Z,0.21
2023-02-11T08:45:48.109Z,0.23
2023-02-11T08:46:52.165Z,0.22
2023-02-11T08:47:55.407Z,0.24
2023-02-11T08:48:58.689Z,0.28
2023-02-11T08:50:01.811Z,0.33
2023-02-11T08:51:13.679Z,0.34
2023-02-11T08:52:16.756Z,0.35
2023-02-11T08:53:19.872Z,0.38
2023-02-11T08:54:22.918Z,0.40
2023-02-11T08:55:26.386Z,0.40
2023-02-11T08:56:31.616Z,0.42
2023-02-11T08:57:34.796Z,0.47
2023-02-11T08:58:38.155Z,0.55
2023-02-11T08:59:41.331Z,0.55
2023-02-11T09:00:45.637Z,0.57
2023-02-11T09:01:48.852Z,0.57
2023-02-11T09:02:52.158Z,0.61
2023-02-11T09:03:55.863Z,0.62
2023-02-11T09:04:59.024Z,0.66
2023-02-11T09:06:06.971Z,0.70
2023-02-11T09:07:10.036Z,0.77
2023-02-11T09:08:14.124Z,0.79
2023-02-11T09:09:17.935Z,0.81
2023-02-11T09:10:20.967Z,0.86
2023-02-11T09:11:33.597Z,0.90
2023-02-11T09:12:36.838Z,0.93
2023-02-11T09:13:42.739Z,0.93
2023-02-11T09:14:45.730Z,1.00
2023-02-11T09:15:48.824Z,1.04
2023-02-11T09:16:53.524Z,1.05
2023-02-11T09:17:56.985Z,1.04
2023-02-11T09:19:02.222Z,1.15
2023-02-11T09:20:05.647Z,1.21
2023-02-11T09:21:10.300Z,1.36
2023-02-11T09:22:13.411Z,1.46
2023-02-11T09:23:18.568Z,1.62
2023-02-11T09:24:21.662Z,1.81
2023-02-11T09:25:25.381Z,1.82
2023-02-11T09:26:31.188Z,1.79
2023-02-11T09:27:34.900Z,1.84
2023-02-11T09:28:38.008Z,1.91
2023-02-11T09:29:41.224Z,1.96
2023-02-11T09:30:44.568Z,2.00
2023-02-11T09:31:47.782Z,2.04
2023-02-11T09:32:51.169Z,2.20
2023-02-11T09:33:57.373Z,2.26
2023-02-11T09:35:00.591Z,2.34
2023-02-11T09:36:05.062Z,2.45
2023-02-11T09:37:08.919Z,2.55
2023-02-11T09:38:11.912Z,2.60
2023-02-11T09:39:18.166Z,2.63
2023-02-11T09:40:21.713Z,2.68
2023-02-11T09:41:24.777Z,2.71
2023-02-11T09:42:46.676Z,2.74
2023-02-11T09:43:56.452Z,2.75
2023-02-11T09:45:01.570Z,2.80
2023-02-11T09:46:05.932Z,2.85
2023-02-11T09:47:36.456Z,2.91
2023-02-11T09:48:43.320Z,3.02
2023-02-11T09:49:50.869Z,3.03
2023-02-11T09:50:59.086Z,3.07
2023-02-11T09:52:07.643Z,3.01
2023-02-11T09:53:14.736Z,3.06
2023-02-11T09:54:34.839Z,3.14
2023-02-11T09:55:43.466Z,3.10
2023-02-11T09:56:46.716Z,3.16
2023-02-11T09:57:49.992Z,3.23
2023-02-11T09:58:54.822Z,3.23
2023-02-11T09:59:58.370Z,3.25
2023-02-11T10:01:59.104Z,3.26
2023-02-11T10:03:26.847Z,3.28
2023-02-11T10:04:38.146Z,3.30
2023-02-11T10:06:06.393Z,3.27
2023-02-11T10:07:15.244Z,3.31
2023-02-11T10:08:41.711Z,3.29
2023-02-11T10:10:20.261Z,3.34
2023-02-11T10:11:49.510Z,3.37
2023-02-11T10:13:04.068Z,3.38
2023-02-11T10:14:06.978Z,3.34
2023-02-11T10:15:21.952Z,3.29
2023-02-11T10:16:48.858Z,3.30
2023-02-11T10:18:32.348Z,3.29
2023-02-11T10:20:09.039Z,3.27
2023-02-11T10:21:36.553Z,3.20
2023-02-11T10:22:49.677Z,3.22
2023-02-11T10:23:57.617Z,3.22
2023-02-11T10:25:01.242Z,3.35
2023-02-11T10:26:12.113Z,3.43
2023-02-11T10:27:20.165Z,3.36
2023-02-11T10:28:51.675Z,3.38
2023-02-11T10:30:05.366Z,3.41
2023-02-11T10:31:44.020Z,3.38
2023-02-11T10:33:04.840Z,3.34
2023-02-11T10:34:13.421Z,3.38
2023-02-11T10:35:21.778Z,3.33
2023-02-11T10:36:30.506Z,3.38
2023-02-11T10:37:33.825Z,3.46
2023-02-11T10:38:37.461Z,3.43
2023-02-11T10:39:41.563Z,3.39
2023-02-11T10:40:44.810Z,3.29
2023-02-11T10:42:12.490Z,3.32
2023-02-11T10:43:27.233Z,3.32
2023-02-11T10:44:37.925Z,3.34
2023-02-11T10:45:45.756Z,3.29
2023-02-11T10:46:50.305Z,3.36
2023-02-11T10:47:53.435Z,3.34
2023-02-11T10:48:56.553Z,3.38
2023-02-11T10:50:03.905Z,3.41
2023-02-11T10:51:17.879Z,3.45
2023-02-11T10:52:26.773Z,3.62
2023-02-11T10:53:29.721Z,3.77
2023-02-11T10:54:32.695Z,3.83
2023-02-11T10:55:36.442Z,3.89
2023-02-11T10:56:46.081Z,3.86
2023-02-11T10:57:57.330Z,3.92
2023-02-11T10:59:14.854Z,4.01
2023-02-11T11:00:43.975Z,4.08
2023-02-11T11:01:50.716Z,4.07
2023-02-11T11:02:57.966Z,4.05
2023-02-11T11:04:01.267Z,4.14
2023-02-11T11:05:16.530Z,4.21
2023-02-11T11:06:32.043Z,4.39
2023-02-11T11:07:35.507Z,4.59
2023-02-11T11:08:48.301Z,4.60
2023-02-11T11:09:53.522Z,4.70
2023-02-11T11:11:07.567Z,4.66
2023-02-11T11:12:42.209Z,4.66
2023-02-11T11:13:58.385Z,4.59
2023-02-11T11:15:19.257Z,4.62
2023-02-11T11:16:30.688Z,4.64
2023-02-11T11:17:33.907Z,4.71
2023-02-11T11:18:37.115Z,4.71
2023-02-11T11:19:40.417Z,4.76
2023-02-11T11:21:01.811Z,4.85
2023-02-11T11:22:05.280Z,4.95
2023-02-11T11:23:28.544Z,4.99
2023-02-11T11:24:46.980Z,5.17
2023-02-11T11:26:11.723Z,5.20
2023-02-11T11:27:26.341Z,5.38
2023-02-11T11:28:33.549Z,5.46
2023-02-11T11:29:43.228Z,5.68
2023-02-11T11:30:46.420Z,5.86
2023-02-11T11:31:57.246Z,5.90
2023-02-11T11:33:01.456Z,5.87
2023-02-11T11:34:32.797Z,5.84
2023-02-11T11:35:35.926Z,5.90
2023-02-11T11:36:40.631Z,5.87
2023-02-11T11:37:46.003Z,5.85
2023-02-11T11:39:02.446Z,5.78
2023-02-11T11:40:25.153Z,5.83
2023-02-11T11:41:31.108Z,5.81
2023-02-11T11:42:37.117Z,5.76
2023-02-11T11:43:40.318Z,5.70
2023-02-11T11:44:59.662Z,5.59
2023-02-11T11:46:03.285Z,5.62
2023-02-11T11:47:12.202Z,5.65
2023-02-11T11:48:24.478Z,5.59
2023-02-11T11:49:36.101Z,5.61
2023-02-11T11:51:00.022Z,5.55
2023-02-11T11:52:38.237Z,5.55
2023-02-11T11:54:00.845Z,5.44
2023-02-11T11:55:17.584Z,5.47
2023-02-11T11:56:25.380Z,5.52
2023-02-11T11:57:30.853Z,5.62
2023-02-11T11:58:35.379Z,5.54
2023-02-11T11:59:41.913Z,5.53
2023-02-11T12:01:21.709Z,5.59
2023-02-11T12:02:40.278Z,5.68
2023-02-11T12:03:52.391Z,5.78
2023-02-11T12:04:55.521Z,5.82
2023-02-11T12:06:16.730Z,5.85
2023-02-11T12:07:35.162Z,5.80
2023-02-11T12:08:50.017Z,5.82
2023-02-11T12:10:14.935Z,5.76
2023-02-11T12:11:33.664Z,5.77
2023-02-11T12:12:53.731Z,5.79
2023-02-11T12:14:18.012Z,5.88
2023-02-11T12:15:40.043Z,5.96
2023-02-11T12:17:02.346Z,5.91
2023-02-11T12:18:24.683Z,5.85
2023-02-11T12:19:36.229Z,5.83
2023-02-11T12:20:53.978Z,5.83
2023-02-11T12:22:37.790Z,5.80
2023-02-11T12:23:54.275Z,5.79
2023-02-11T12:25:25.424Z,5.91
2023-02-11T12:26:41.199Z,5.87
2023-02-11T12:27:57.220Z,5.85
2023-02-11T12:29:07.093Z,5.87
2023-02-11T12:30:24.987Z,5.88
2023-02-11T12:32:07.683Z,5.85
2023-02-11T12:33:21.044Z,5.90
2023-02-11T12:34:42.394Z,5.85
2023-02-11T12:35:55.533Z,5.88
2023-02-11T12:37:10.881Z,5.91
2023-02-11T12:38:27.389Z,5.90
2023-02-11T12:39:43.387Z,5.94
2023-02-11T12:41:42.420Z,5.95
2023-02-11T12:43:11.266Z,5.92
2023-02-11T12:44:31.677Z,5.92
2023-02-11T12:46:03.300Z,5.92
2023-02-11T12:47:49.789Z,5.98
2023-02-11T12:49:21.803Z,6.01
2023-02-11T12:50:57.452Z,6.08
2023-02-11T12:52:30.366Z,6.16
2023-02-11T12:53:44.873Z,6.07
2023-02-11T12:55:04.429Z,6.12
2023-02-11T12:56:31.420Z,6.08
2023-02-11T12:57:38.528Z,6.14
2023-02-11T12:58:45.567Z,6.08
2023-02-11T13:00:14.900Z,6.03
2023-02-11T13:01:26.844Z,5.92
2023-02-11T13:03:05.581Z,6.04
2023-02-11T13:04:17.883Z,5.92
2023-02-11T13:05:30.636Z,5.85
2023-02-11T13:06:45.925Z,5.78
2023-02-11T13:07:53.186Z,5.83
2023-02-11T13:09:03.355Z,5.87
2023-02-11T13:10:26.781Z,5.87
2023-02-11T13:11:38.197Z,5.86
2023-02-11T13:13:05.108Z,5.88
2023-02-11T13:14:26.596Z,5.91
2023-02-11T13:15:31.227Z,5.94
2023-02-11T13:16:41.980Z,5.92
2023-02-11T13:18:01.894Z,5.90
2023-02-11T13:19:13.859Z,5.97
2023-02-11T13:20:28.949Z,5.95
2023-02-11T13:21:45.109Z,5.98
2023-02-11T13:23:03.602Z,6.01
2023-02-11T13:24:34.836Z,5.99
2023-02-11T13:25:50.398Z,5.99
2023-02-11T13:27:05.866Z,5.94
2023-02-11T13:28:27.041Z,5.95
2023-02-11T13:30:12.239Z,5.89
2023-02-11T13:31:17.380Z,5.92
2023-02-11T13:32:21.422Z,5.85
2023-02-11T13:33:37.179Z,5.82
2023-02-11T13:34:43.040Z,5.89
2023-02-11T13:35:58.533Z,5.97
2023-02-11T13:37:02.716Z,5.91
2023-02-11T13:38:19.047Z,5.87
2023-02-11T13:39:23.798Z,5.90
2023-02-11T13:40:39.596Z,5.92
2023-02-11T13:41:52.470Z,5.89
2023-02-11T13:43:03.321Z,5.83
2023-02-11T13:44:27.963Z,5.87
2023-02-11T13:45:43.659Z,5.87
2023-02-11T13:46:50.256Z,5.81
2023-02-11T13:48:02.598Z,5.79
2023-02-11T13:49:06.211Z,5.77
2023-02-11T13:50:25.389Z,5.75
2023-02-11T13:51:43.157Z,5.78
2023-02-11T13:53:02.072Z,5.80
2023-02-11T13:54:08.016Z,5.86
2023-02-11T13:55:14.762Z,5.88
2023-02-11T13:56:35.970Z,5.86
2023-02-11T13:57:41.135Z,5.82
2023-02-11T13:58:49.482Z,5.79
2023-02-11T13:59:59.519Z,5.77
2023-02-11T14:01:02.805Z,5.79
2023-02-11T14:02:42.583Z,5.80
2023-02-11T14:04:36.982Z,5.90
2023-02-11T14:06:27.950Z,5.83
2023-02-11T14:07:52.668Z,5.90
2023-02-11T14:09:09.979Z,5.98
2023-02-11T14:10:45.891Z,6.00
2023-02-11T14:11:52.318Z,6.14
2023-02-11T14:13:26.112Z,6.07
2023-02-11T14:14:34.157Z,6.09
2023-02-11T14:15:41.560Z,6.00
2023-02-11T14:17:04.786Z,5.94
2023-02-11T14:18:38.404Z,5.86
2023-02-11T14:19:47.102Z,5.80
2023-02-11T14:20:51.936Z,5.76
2023-02-11T14:22:12.434Z,5.71
2023-02-11T14:23:24.980Z,5.71
2023-02-11T14:24:28.222Z,5.69
2023-02-11T14:25:33.067Z,5.61
2023-02-11T14:26:58.891Z,5.60
2023-02-11T14:28:16.110Z,5.63
2023-02-11T14:29:37.678Z,5.65
2023-02-11T14:30:52.371Z,5.63
2023-02-11T14:32:04.053Z,5.63
2023-02-11T14:33:35.335Z,5.59
2023-02-11T14:34:42.235Z,5.57
2023-02-11T14:36:03.354Z,5.51
2023-02-11T14:37:27.285Z,5.46
2023-02-11T14:38:56.495Z,5.52
2023-02-11T14:40:27.160Z,5.48
2023-02-11T14:41:37.426Z,5.43
2023-02-11T14:42:41.311Z,5.42
2023-02-11T14:43:48.445Z,5.53
2023-02-11T14:44:56.514Z,5.47
2023-02-11T14:46:02.070Z,5.43
2023-02-11T14:47:06.506Z,5.49
2023-02-11T14:48:17.616Z,5.48
2023-02-11T14:49:29.138Z,5.46
2023-02-11T14:50:49.027Z,5.46
2023-02-11T14:52:00.192Z,5.44
2023-02-11T14:53:06.703Z,5.42
2023-02-11T14:54:25.558Z,5.47
2023-02-11T14:55:41.960Z,5.41
2023-02-11T14:56:50.292Z,5.43
2023-02-11T14:58:19.076Z,5.40
2023-02-11T14:59:24.017Z,5.31
2023-02-11T15:00:28.454Z,5.32
2023-02-11T15:01:37.896Z,5.24
2023-02-11T15:02:44.707Z,5.19